sensor_id;sensor_type;location;lat;lon;timestamp;P1;durP1;ratioP1;P2;durP2;ratioP2
58366;SDS011;57745;42.524;12.052;2024-01-25T00:01:09;12.27;;;6.40;;
58366;SDS011;57745;42.524;12.052;2024-01-25T00:03:35;11.60;;;7.65;;
58366;SDS011;57745;42.524;12.052;2024-01-25T00:06:01;10.45;;;6.28;;
58366;SDS011;57745;42.524;12.052;2024-01-25T00:08:27;12.05;;;6.65;;
58366;SDS011;57745;42.524;12.052;2024-01-25T00:10:53;12.75;;;7.03;;
58366;SDS011;57745;42.524;12.052;2024-01-25T00:13:18;11.93;;;6.85;;
58366;SDS011;57745;42.524;12.052;2024-01-25T00:15:44;10.65;;;6.20;;
58366;SDS011;57745;42.524;12.052;2024-01-25T00:18:09;11.85;;;6.57;;
58366;SDS011;57745;42.524;12.052;2024-01-25T00:20:34;9.98;;;6.35;;
58366;SDS011;57745;42.524;12.052;2024-01-25T00:23:00;10.98;;;6.85;;
58366;SDS011;57745;42.524;12.052;2024-01-25T00:25:26;12.95;;;7.47;;
58366;SDS011;57745;42.524;12.052;2024-01-25T00:27:51;13.60;;;7.53;;
58366;SDS011;57745;42.524;12.052;2024-01-25T00:30:17;10.50;;;7.35;;
58366;SDS011;57745;42.524;12.052;2024-01-25T00:32:43;11.40;;;7.80;;
58366;SDS011;57745;42.524;12.052;2024-01-25T00:35:08;15.25;;;8.57;;
58366;SDS011;57745;42.524;12.052;2024-01-25T00:37:36;13.50;;;8.25;;
58366;SDS011;57745;42.524;12.052;2024-01-25T00:40:02;13.32;;;8.75;;
58366;SDS011;57745;42.524;12.052;2024-01-25T00:42:28;14.20;;;9.15;;
58366;SDS011;57745;42.524;12.052;2024-01-25T00:44:55;17.25;;;9.95;;
58366;SDS011;57745;42.524;12.052;2024-01-25T00:47:22;15.55;;;9.52;;
58366;SDS011;57745;42.524;12.052;2024-01-25T00:49:48;15.25;;;9.43;;
58366;SDS011;57745;42.524;12.052;2024-01-25T00:52:14;17.33;;;9.48;;
58366;SDS011;57745;42.524;12.052;2024-01-25T00:54:40;18.23;;;9.70;;
58366;SDS011;57745;42.524;12.052;2024-01-25T00:57:05;14.50;;;9.15;;
58366;SDS011;57745;42.524;12.052;2024-01-25T00:59:31;17.70;;;10.45;;
58366;SDS011;57745;42.524;12.052;2024-01-25T01:01:58;14.43;;;9.38;;
58366;SDS011;57745;42.524;12.052;2024-01-25T01:04:24;16.75;;;8.45;;
58366;SDS011;57745;42.524;12.052;2024-01-25T01:06:50;15.75;;;9.70;;
58366;SDS011;57745;42.524;12.052;2024-01-25T01:09:16;18.10;;;9.98;;
58366;SDS011;57745;42.524;12.052;2024-01-25T01:11:42;14.05;;;8.30;;
58366;SDS011;57745;42.524;12.052;2024-01-25T01:14:08;15.77;;;9.68;;
58366;SDS011;57745;42.524;12.052;2024-01-25T01:16:33;16.90;;;9.40;;
58366;SDS011;57745;42.524;12.052;2024-01-25T01:19:01;14.45;;;9.52;;
58366;SDS011;57745;42.524;12.052;2024-01-25T01:21:30;14.90;;;10.13;;
58366;SDS011;57745;42.524;12.052;2024-01-25T01:23:57;17.40;;;10.27;;
58366;SDS011;57745;42.524;12.052;2024-01-25T01:26:22;15.50;;;9.95;;
58366;SDS011;57745;42.524;12.052;2024-01-25T01:28:48;18.88;;;10.65;;
58366;SDS011;57745;42.524;12.052;2024-01-25T01:31:13;18.23;;;10.00;;
58366;SDS011;57745;42.524;12.052;2024-01-25T01:33:39;16.20;;;9.85;;
58366;SDS011;57745;42.524;12.052;2024-01-25T01:36:04;17.70;;;10.10;;
58366;SDS011;57745;42.524;12.052;2024-01-25T01:38:30;17.17;;;9.80;;
58366;SDS011;57745;42.524;12.052;2024-01-25T01:40:55;18.02;;;10.18;;
58366;SDS011;57745;42.524;12.052;2024-01-25T01:43:21;18.17;;;11.05;;
58366;SDS011;57745;42.524;12.052;2024-01-25T01:45:48;14.63;;;9.30;;
58366;SDS011;57745;42.524;12.052;2024-01-25T01:48:14;13.50;;;8.98;;
58366;SDS011;57745;42.524;12.052;2024-01-25T01:50:41;15.15;;;9.95;;
58366;SDS011;57745;42.524;12.052;2024-01-25T01:53:09;13.75;;;9.27;;
58366;SDS011;57745;42.524;12.052;2024-01-25T01:55:35;15.52;;;9.23;;
58366;SDS011;57745;42.524;12.052;2024-01-25T01:58:01;13.68;;;8.32;;
58366;SDS011;57745;42.524;12.052;2024-01-25T02:00:28;18.38;;;8.85;;
58366;SDS011;57745;42.524;12.052;2024-01-25T02:02:54;13.60;;;8.20;;
58366;SDS011;57745;42.524;12.052;2024-01-25T02:05:19;15.25;;;8.30;;
58366;SDS011;57745;42.524;12.052;2024-01-25T02:07:45;12.63;;;8.45;;
58366;SDS011;57745;42.524;12.052;2024-01-25T02:10:11;15.10;;;8.50;;
58366;SDS011;57745;42.524;12.052;2024-01-25T02:12:36;14.25;;;8.60;;
58366;SDS011;57745;42.524;12.052;2024-01-25T02:15:03;19.02;;;11.07;;
58366;SDS011;57745;42.524;12.052;2024-01-25T02:17:29;16.20;;;9.25;;
58366;SDS011;57745;42.524;12.052;2024-01-25T02:19:55;17.35;;;9.40;;
58366;SDS011;57745;42.524;12.052;2024-01-25T02:22:20;16.70;;;9.75;;
58366;SDS011;57745;42.524;12.052;2024-01-25T02:24:46;15.52;;;9.35;;
58366;SDS011;57745;42.524;12.052;2024-01-25T02:27:11;15.65;;;8.88;;
58366;SDS011;57745;42.524;12.052;2024-01-25T02:29:36;19.70;;;9.13;;
58366;SDS011;57745;42.524;12.052;2024-01-25T02:32:02;16.35;;;9.68;;
58366;SDS011;57745;42.524;12.052;2024-01-25T02:34:28;16.27;;;10.00;;
58366;SDS011;57745;42.524;12.052;2024-01-25T02:36:54;16.58;;;9.10;;
58366;SDS011;57745;42.524;12.052;2024-01-25T02:39:19;17.98;;;9.98;;
58366;SDS011;57745;42.524;12.052;2024-01-25T02:41:44;17.00;;;9.90;;
58366;SDS011;57745;42.524;12.052;2024-01-25T02:44:11;17.25;;;10.70;;
58366;SDS011;57745;42.524;12.052;2024-01-25T02:46:36;19.00;;;11.85;;
58366;SDS011;57745;42.524;12.052;2024-01-25T02:49:03;18.42;;;11.10;;
58366;SDS011;57745;42.524;12.052;2024-01-25T02:51:29;17.85;;;11.40;;
58366;SDS011;57745;42.524;12.052;2024-01-25T02:53:54;16.40;;;11.32;;
58366;SDS011;57745;42.524;12.052;2024-01-25T02:56:20;16.23;;;11.38;;
58366;SDS011;57745;42.524;12.052;2024-01-25T02:58:45;18.77;;;12.07;;
58366;SDS011;57745;42.524;12.052;2024-01-25T03:01:11;18.23;;;12.23;;
58366;SDS011;57745;42.524;12.052;2024-01-25T03:03:36;20.95;;;12.73;;
58366;SDS011;57745;42.524;12.052;2024-01-25T03:06:02;19.65;;;12.80;;
58366;SDS011;57745;42.524;12.052;2024-01-25T03:08:27;18.67;;;12.20;;
58366;SDS011;57745;42.524;12.052;2024-01-25T03:10:53;19.73;;;12.15;;
58366;SDS011;57745;42.524;12.052;2024-01-25T03:13:18;23.20;;;13.70;;
58366;SDS011;57745;42.524;12.052;2024-01-25T03:15:44;20.60;;;13.18;;
58366;SDS011;57745;42.524;12.052;2024-01-25T03:18:10;28.42;;;13.90;;
58366;SDS011;57745;42.524;12.052;2024-01-25T03:20:36;18.42;;;11.70;;
58366;SDS011;57745;42.524;12.052;2024-01-25T03:23:01;20.38;;;12.57;;
58366;SDS011;57745;42.524;12.052;2024-01-25T03:25:27;19.17;;;12.15;;
58366;SDS011;57745;42.524;12.052;2024-01-25T03:27:53;20.83;;;12.25;;
58366;SDS011;57745;42.524;12.052;2024-01-25T03:30:18;21.33;;;12.70;;
58366;SDS011;57745;42.524;12.052;2024-01-25T03:32:46;18.75;;;12.88;;
58366;SDS011;57745;42.524;12.052;2024-01-25T03:35:12;19.90;;;12.98;;
58366;SDS011;57745;42.524;12.052;2024-01-25T03:37:37;20.42;;;12.85;;
58366;SDS011;57745;42.524;12.052;2024-01-25T03:40:03;19.30;;;12.52;;
58366;SDS011;57745;42.524;12.052;2024-01-25T03:42:30;18.25;;;11.63;;
58366;SDS011;57745;42.524;12.052;2024-01-25T03:44:55;19.90;;;13.05;;
58366;SDS011;57745;42.524;12.052;2024-01-25T03:47:21;19.65;;;12.82;;
58366;SDS011;57745;42.524;12.052;2024-01-25T03:49:47;15.32;;;11.70;;
58366;SDS011;57745;42.524;12.052;2024-01-25T03:52:13;19.85;;;13.40;;
58366;SDS011;57745;42.524;12.052;2024-01-25T03:54:38;20.52;;;13.02;;
58366;SDS011;57745;42.524;12.052;2024-01-25T03:57:04;20.65;;;13.18;;
58366;SDS011;57745;42.524;12.052;2024-01-25T03:59:29;21.65;;;13.45;;
58366;SDS011;57745;42.524;12.052;2024-01-25T04:01:55;19.20;;;12.55;;
58366;SDS011;57745;42.524;12.052;2024-01-25T04:04:20;21.75;;;13.40;;
58366;SDS011;57745;42.524;12.052;2024-01-25T04:06:46;19.65;;;12.45;;
58366;SDS011;57745;42.524;12.052;2024-01-25T04:09:12;23.48;;;12.88;;
58366;SDS011;57745;42.524;12.052;2024-01-25T04:11:38;22.05;;;13.57;;
58366;SDS011;57745;42.524;12.052;2024-01-25T04:14:04;18.90;;;13.07;;
58366;SDS011;57745;42.524;12.052;2024-01-25T04:16:30;19.95;;;12.18;;
58366;SDS011;57745;42.524;12.052;2024-01-25T04:18:55;20.13;;;12.20;;
58366;SDS011;57745;42.524;12.052;2024-01-25T04:21:21;19.90;;;12.20;;
58366;SDS011;57745;42.524;12.052;2024-01-25T04:23:47;17.05;;;11.98;;
58366;SDS011;57745;42.524;12.052;2024-01-25T04:26:13;17.20;;;12.02;;
58366;SDS011;57745;42.524;12.052;2024-01-25T04:28:39;19.25;;;12.18;;
58366;SDS011;57745;42.524;12.052;2024-01-25T04:31:05;20.38;;;12.10;;
58366;SDS011;57745;42.524;12.052;2024-01-25T04:33:30;19.98;;;12.13;;
58366;SDS011;57745;42.524;12.052;2024-01-25T04:35:56;22.30;;;12.85;;
58366;SDS011;57745;42.524;12.052;2024-01-25T04:38:21;20.13;;;12.52;;
58366;SDS011;57745;42.524;12.052;2024-01-25T04:40:47;20.92;;;12.05;;
58366;SDS011;57745;42.524;12.052;2024-01-25T04:43:12;18.55;;;11.45;;
58366;SDS011;57745;42.524;12.052;2024-01-25T04:45:38;22.13;;;13.15;;
58366;SDS011;57745;42.524;12.052;2024-01-25T04:48:04;21.10;;;12.60;;
58366;SDS011;57745;42.524;12.052;2024-01-25T04:50:30;21.05;;;12.25;;
58366;SDS011;57745;42.524;12.052;2024-01-25T04:52:55;19.00;;;11.43;;
58366;SDS011;57745;42.524;12.052;2024-01-25T04:55:21;18.52;;;12.15;;
58366;SDS011;57745;42.524;12.052;2024-01-25T04:57:46;21.02;;;12.20;;
58366;SDS011;57745;42.524;12.052;2024-01-25T05:00:13;22.33;;;12.98;;
58366;SDS011;57745;42.524;12.052;2024-01-25T05:02:39;18.73;;;12.73;;
58366;SDS011;57745;42.524;12.052;2024-01-25T05:05:04;19.70;;;12.70;;
58366;SDS011;57745;42.524;12.052;2024-01-25T05:07:30;23.23;;;12.60;;
58366;SDS011;57745;42.524;12.052;2024-01-25T05:09:55;21.05;;;12.63;;
58366;SDS011;57745;42.524;12.052;2024-01-25T05:12:21;20.63;;;11.85;;
58366;SDS011;57745;42.524;12.052;2024-01-25T05:14:46;22.80;;;12.70;;
58366;SDS011;57745;42.524;12.052;2024-01-25T05:17:11;24.33;;;13.85;;
58366;SDS011;57745;42.524;12.052;2024-01-25T05:19:37;18.65;;;12.75;;
58366;SDS011;57745;42.524;12.052;2024-01-25T05:22:02;20.73;;;12.68;;
58366;SDS011;57745;42.524;12.052;2024-01-25T05:24:31;22.42;;;13.32;;
58366;SDS011;57745;42.524;12.052;2024-01-25T05:26:58;18.30;;;12.27;;
58366;SDS011;57745;42.524;12.052;2024-01-25T05:29:23;19.02;;;12.05;;
58366;SDS011;57745;42.524;12.052;2024-01-25T05:31:48;23.33;;;12.27;;
58366;SDS011;57745;42.524;12.052;2024-01-25T05:34:14;20.55;;;12.35;;
58366;SDS011;57745;42.524;12.052;2024-01-25T05:36:40;21.98;;;13.10;;
58366;SDS011;57745;42.524;12.052;2024-01-25T05:39:06;21.23;;;11.57;;
58366;SDS011;57745;42.524;12.052;2024-01-25T05:41:32;19.50;;;12.25;;
58366;SDS011;57745;42.524;12.052;2024-01-25T05:43:59;20.85;;;10.80;;
58366;SDS011;57745;42.524;12.052;2024-01-25T05:46:26;17.73;;;10.82;;
58366;SDS011;57745;42.524;12.052;2024-01-25T05:48:52;19.38;;;11.65;;
58366;SDS011;57745;42.524;12.052;2024-01-25T05:51:17;22.55;;;11.35;;
58366;SDS011;57745;42.524;12.052;2024-01-25T05:53:42;26.45;;;13.63;;
58366;SDS011;57745;42.524;12.052;2024-01-25T05:56:08;33.22;;;18.10;;
58366;SDS011;57745;42.524;12.052;2024-01-25T05:58:33;38.15;;;17.85;;
58366;SDS011;57745;42.524;12.052;2024-01-25T06:00:59;50.35;;;24.85;;
58366;SDS011;57745;42.524;12.052;2024-01-25T06:03:24;49.97;;;24.23;;
58366;SDS011;57745;42.524;12.052;2024-01-25T06:05:50;43.97;;;23.50;;
58366;SDS011;57745;42.524;12.052;2024-01-25T06:08:15;36.42;;;18.92;;
58366;SDS011;57745;42.524;12.052;2024-01-25T06:10:41;34.65;;;15.55;;
58366;SDS011;57745;42.524;12.052;2024-01-25T06:13:08;24.67;;;12.57;;
58366;SDS011;57745;42.524;12.052;2024-01-25T06:15:33;21.98;;;10.18;;
58366;SDS011;57745;42.524;12.052;2024-01-25T06:17:59;24.58;;;11.52;;
58366;SDS011;57745;42.524;12.052;2024-01-25T06:20:24;25.00;;;11.32;;
58366;SDS011;57745;42.524;12.052;2024-01-25T06:22:50;19.85;;;9.88;;
58366;SDS011;57745;42.524;12.052;2024-01-25T06:25:15;22.23;;;12.02;;
58366;SDS011;57745;42.524;12.052;2024-01-25T06:27:40;59.65;;;29.30;;
58366;SDS011;57745;42.524;12.052;2024-01-25T06:30:06;68.82;;;36.60;;
58366;SDS011;57745;42.524;12.052;2024-01-25T06:32:32;66.30;;;35.15;;
58366;SDS011;57745;42.524;12.052;2024-01-25T06:34:57;46.45;;;26.60;;
58366;SDS011;57745;42.524;12.052;2024-01-25T06:37:23;31.25;;;17.33;;
58366;SDS011;57745;42.524;12.052;2024-01-25T06:39:48;33.45;;;15.38;;
58366;SDS011;57745;42.524;12.052;2024-01-25T06:42:14;21.13;;;13.55;;
58366;SDS011;57745;42.524;12.052;2024-01-25T06:44:39;19.50;;;12.77;;
58366;SDS011;57745;42.524;12.052;2024-01-25T06:47:05;21.27;;;12.40;;
58366;SDS011;57745;42.524;12.052;2024-01-25T06:49:30;24.92;;;13.82;;
58366;SDS011;57745;42.524;12.052;2024-01-25T06:51:56;21.42;;;13.45;;
58366;SDS011;57745;42.524;12.052;2024-01-25T06:54:22;20.48;;;13.05;;
58366;SDS011;57745;42.524;12.052;2024-01-25T06:56:47;22.77;;;12.95;;
58366;SDS011;57745;42.524;12.052;2024-01-25T06:59:12;23.48;;;11.85;;
58366;SDS011;57745;42.524;12.052;2024-01-25T07:01:38;21.65;;;10.30;;
58366;SDS011;57745;42.524;12.052;2024-01-25T07:04:04;18.45;;;10.90;;
58366;SDS011;57745;42.524;12.052;2024-01-25T07:06:30;18.00;;;9.65;;
58366;SDS011;57745;42.524;12.052;2024-01-25T07:08:55;22.30;;;9.95;;
58366;SDS011;57745;42.524;12.052;2024-01-25T07:11:21;26.95;;;11.65;;
58366;SDS011;57745;42.524;12.052;2024-01-25T07:13:46;14.73;;;9.65;;
58366;SDS011;57745;42.524;12.052;2024-01-25T07:16:12;17.65;;;10.70;;
58366;SDS011;57745;42.524;12.052;2024-01-25T07:18:37;18.30;;;10.15;;
58366;SDS011;57745;42.524;12.052;2024-01-25T07:21:03;20.67;;;10.43;;
58366;SDS011;57745;42.524;12.052;2024-01-25T07:23:29;14.77;;;8.75;;
58366;SDS011;57745;42.524;12.052;2024-01-25T07:25:55;19.02;;;8.90;;
58366;SDS011;57745;42.524;12.052;2024-01-25T07:28:20;15.48;;;8.15;;
58366;SDS011;57745;42.524;12.052;2024-01-25T07:30:47;14.50;;;7.93;;
58366;SDS011;57745;42.524;12.052;2024-01-25T07:33:13;16.60;;;7.57;;
58366;SDS011;57745;42.524;12.052;2024-01-25T07:35:38;13.25;;;7.25;;
58366;SDS011;57745;42.524;12.052;2024-01-25T07:38:10;16.23;;;7.60;;
58366;SDS011;57745;42.524;12.052;2024-01-25T07:40:39;14.70;;;6.72;;
58366;SDS011;57745;42.524;12.052;2024-01-25T07:43:05;17.02;;;7.32;;
58366;SDS011;57745;42.524;12.052;2024-01-25T07:45:31;12.75;;;6.97;;
58366;SDS011;57745;42.524;12.052;2024-01-25T07:47:56;11.63;;;6.68;;
58366;SDS011;57745;42.524;12.052;2024-01-25T07:50:22;10.35;;;6.95;;
58366;SDS011;57745;42.524;12.052;2024-01-25T07:52:47;12.07;;;6.97;;
58366;SDS011;57745;42.524;12.052;2024-01-25T07:55:15;11.40;;;6.97;;
58366;SDS011;57745;42.524;12.052;2024-01-25T07:57:40;13.93;;;6.60;;
58366;SDS011;57745;42.524;12.052;2024-01-25T08:00:06;12.35;;;6.07;;
58366;SDS011;57745;42.524;12.052;2024-01-25T08:02:33;12.90;;;6.45;;
58366;SDS011;57745;42.524;12.052;2024-01-25T08:04:59;10.27;;;6.22;;
58366;SDS011;57745;42.524;12.052;2024-01-25T08:07:25;11.55;;;6.82;;
58366;SDS011;57745;42.524;12.052;2024-01-25T08:09:50;13.60;;;6.60;;
58366;SDS011;57745;42.524;12.052;2024-01-25T08:12:17;12.50;;;6.78;;
58366;SDS011;57745;42.524;12.052;2024-01-25T08:14:43;11.60;;;6.82;;
58366;SDS011;57745;42.524;12.052;2024-01-25T08:17:09;11.60;;;5.95;;
58366;SDS011;57745;42.524;12.052;2024-01-25T08:19:35;12.05;;;6.03;;
58366;SDS011;57745;42.524;12.052;2024-01-25T08:22:00;13.80;;;6.88;;
58366;SDS011;57745;42.524;12.052;2024-01-25T08:24:26;11.93;;;7.43;;
58366;SDS011;57745;42.524;12.052;2024-01-25T08:26:51;12.85;;;6.80;;
58366;SDS011;57745;42.524;12.052;2024-01-25T08:29:16;11.02;;;6.53;;
58366;SDS011;57745;42.524;12.052;2024-01-25T08:31:42;11.10;;;5.68;;
58366;SDS011;57745;42.524;12.052;2024-01-25T08:34:07;10.75;;;6.35;;
58366;SDS011;57745;42.524;12.052;2024-01-25T08:36:33;11.00;;;5.68;;
58366;SDS011;57745;42.524;12.052;2024-01-25T08:38:58;12.38;;;6.07;;
58366;SDS011;57745;42.524;12.052;2024-01-25T08:41:23;9.18;;;5.30;;
58366;SDS011;57745;42.524;12.052;2024-01-25T08:43:49;12.20;;;5.65;;
58366;SDS011;57745;42.524;12.052;2024-01-25T08:46:15;12.15;;;5.60;;
58366;SDS011;57745;42.524;12.052;2024-01-25T08:48:41;12.98;;;4.93;;
58366;SDS011;57745;42.524;12.052;2024-01-25T08:51:06;12.20;;;5.25;;
58366;SDS011;57745;42.524;12.052;2024-01-25T08:53:33;9.95;;;4.32;;
58366;SDS011;57745;42.524;12.052;2024-01-25T08:55:58;8.55;;;4.50;;
58366;SDS011;57745;42.524;12.052;2024-01-25T08:58:24;10.98;;;4.88;;
58366;SDS011;57745;42.524;12.052;2024-01-25T09:00:50;10.38;;;4.68;;
58366;SDS011;57745;42.524;12.052;2024-01-25T09:03:16;13.73;;;5.00;;
58366;SDS011;57745;42.524;12.052;2024-01-25T09:05:41;9.57;;;4.38;;
58366;SDS011;57745;42.524;12.052;2024-01-25T09:08:12;7.43;;;3.38;;
58366;SDS011;57745;42.524;12.052;2024-01-25T09:10:39;10.30;;;3.90;;
58366;SDS011;57745;42.524;12.052;2024-01-25T09:13:06;10.27;;;4.03;;
58366;SDS011;57745;42.524;12.052;2024-01-25T09:15:31;10.10;;;4.13;;
58366;SDS011;57745;42.524;12.052;2024-01-25T09:17:57;5.72;;;2.92;;
58366;SDS011;57745;42.524;12.052;2024-01-25T09:20:22;9.50;;;3.50;;
58366;SDS011;57745;42.524;12.052;2024-01-25T09:22:48;8.23;;;3.28;;
58366;SDS011;57745;42.524;12.052;2024-01-25T09:25:13;14.50;;;3.72;;
58366;SDS011;57745;42.524;12.052;2024-01-25T09:27:39;12.65;;;3.17;;
58366;SDS011;57745;42.524;12.052;2024-01-25T09:30:07;9.90;;;3.28;;
58366;SDS011;57745;42.524;12.052;2024-01-25T09:32:33;9.07;;;3.78;;
58366;SDS011;57745;42.524;12.052;2024-01-25T09:34:59;6.13;;;3.55;;
58366;SDS011;57745;42.524;12.052;2024-01-25T09:37:24;5.47;;;3.30;;
58366;SDS011;57745;42.524;12.052;2024-01-25T09:39:50;9.35;;;3.03;;
58366;SDS011;57745;42.524;12.052;2024-01-25T09:42:19;10.52;;;3.05;;
58366;SDS011;57745;42.524;12.052;2024-01-25T09:44:44;6.70;;;2.92;;
58366;SDS011;57745;42.524;12.052;2024-01-25T09:47:10;12.75;;;3.22;;
58366;SDS011;57745;42.524;12.052;2024-01-25T09:49:36;7.47;;;3.08;;
58366;SDS011;57745;42.524;12.052;2024-01-25T09:52:03;6.40;;;2.90;;
58366;SDS011;57745;42.524;12.052;2024-01-25T09:54:35;8.63;;;2.67;;
58366;SDS011;57745;42.524;12.052;2024-01-25T09:57:06;10.30;;;2.85;;
58366;SDS011;57745;42.524;12.052;2024-01-25T09:59:37;7.20;;;2.80;;
58366;SDS011;57745;42.524;12.052;2024-01-25T10:02:02;7.07;;;2.15;;
58366;SDS011;57745;42.524;12.052;2024-01-25T10:04:29;8.23;;;2.15;;
58366;SDS011;57745;42.524;12.052;2024-01-25T10:06:55;5.45;;;1.70;;
58366;SDS011;57745;42.524;12.052;2024-01-25T10:09:21;5.57;;;2.67;;
58366;SDS011;57745;42.524;12.052;2024-01-25T10:11:47;8.98;;;2.13;;
58366;SDS011;57745;42.524;12.052;2024-01-25T10:14:13;2.97;;;1.58;;
58366;SDS011;57745;42.524;12.052;2024-01-25T10:16:39;8.88;;;2.15;;
58366;SDS011;57745;42.524;12.052;2024-01-25T10:19:06;5.90;;;1.70;;
58366;SDS011;57745;42.524;12.052;2024-01-25T10:21:32;4.40;;;1.42;;
58366;SDS011;57745;42.524;12.052;2024-01-25T10:24:00;9.55;;;2.08;;
58366;SDS011;57745;42.524;12.052;2024-01-25T10:26:26;5.90;;;1.65;;
58366;SDS011;57745;42.524;12.052;2024-01-25T10:28:53;6.63;;;2.13;;
58366;SDS011;57745;42.524;12.052;2024-01-25T10:31:19;5.57;;;1.60;;
58366;SDS011;57745;42.524;12.052;2024-01-25T10:33:47;9.43;;;2.33;;
58366;SDS011;57745;42.524;12.052;2024-01-25T10:36:13;4.80;;;1.83;;
58366;SDS011;57745;42.524;12.052;2024-01-25T10:38:38;6.85;;;2.13;;
58366;SDS011;57745;42.524;12.052;2024-01-25T10:41:06;4.22;;;1.60;;
58366;SDS011;57745;42.524;12.052;2024-01-25T10:43:32;5.55;;;2.25;;
58366;SDS011;57745;42.524;12.052;2024-01-25T10:45:58;5.25;;;2.00;;
58366;SDS011;57745;42.524;12.052;2024-01-25T10:48:25;8.82;;;2.00;;
58366;SDS011;57745;42.524;12.052;2024-01-25T10:50:51;5.40;;;2.00;;
58366;SDS011;57745;42.524;12.052;2024-01-25T10:53:23;8.35;;;1.95;;
58366;SDS011;57745;42.524;12.052;2024-01-25T10:55:50;8.82;;;1.83;;
58366;SDS011;57745;42.524;12.052;2024-01-25T10:58:15;5.30;;;2.55;;
58366;SDS011;57745;42.524;12.052;2024-01-25T11:00:41;7.60;;;1.88;;
58366;SDS011;57745;42.524;12.052;2024-01-25T11:03:14;7.03;;;2.20;;
58366;SDS011;57745;42.524;12.052;2024-01-25T11:05:39;7.65;;;2.30;;
58366;SDS011;57745;42.524;12.052;2024-01-25T11:08:05;5.13;;;1.70;;
58366;SDS011;57745;42.524;12.052;2024-01-25T11:10:43;9.68;;;2.95;;
58366;SDS011;57745;42.524;12.052;2024-01-25T11:13:14;7.50;;;1.65;;
58366;SDS011;57745;42.524;12.052;2024-01-25T11:15:40;9.98;;;1.90;;
58366;SDS011;57745;42.524;12.052;2024-01-25T11:18:07;7.93;;;2.45;;
58366;SDS011;57745;42.524;12.052;2024-01-25T11:20:34;10.93;;;2.10;;
58366;SDS011;57745;42.524;12.052;2024-01-25T11:23:01;4.43;;;1.48;;
58366;SDS011;57745;42.524;12.052;2024-01-25T11:27:59;7.57;;;3.28;;
58366;SDS011;57745;42.524;12.052;2024-01-25T11:30:26;6.50;;;2.38;;
58366;SDS011;57745;42.524;12.052;2024-01-25T11:32:51;7.25;;;2.00;;
58366;SDS011;57745;42.524;12.052;2024-01-25T11:35:17;8.32;;;2.13;;
58366;SDS011;57745;42.524;12.052;2024-01-25T11:37:44;5.00;;;1.98;;
58366;SDS011;57745;42.524;12.052;2024-01-25T11:40:11;5.47;;;1.63;;
58366;SDS011;57745;42.524;12.052;2024-01-25T11:42:38;7.93;;;2.10;;
58366;SDS011;57745;42.524;12.052;2024-01-25T11:45:05;3.85;;;1.67;;
58366;SDS011;57745;42.524;12.052;2024-01-25T11:47:34;5.40;;;1.92;;
58366;SDS011;57745;42.524;12.052;2024-01-25T11:50:00;5.95;;;1.80;;
58366;SDS011;57745;42.524;12.052;2024-01-25T11:52:26;7.03;;;1.90;;
58366;SDS011;57745;42.524;12.052;2024-01-25T11:54:51;7.43;;;1.88;;
58366;SDS011;57745;42.524;12.052;2024-01-25T11:57:17;7.22;;;1.75;;
58366;SDS011;57745;42.524;12.052;2024-01-25T11:59:43;4.28;;;1.58;;
58366;SDS011;57745;42.524;12.052;2024-01-25T12:02:11;6.93;;;1.77;;
58366;SDS011;57745;42.524;12.052;2024-01-25T12:04:40;7.25;;;1.60;;
58366;SDS011;57745;42.524;12.052;2024-01-25T12:07:06;6.00;;;2.10;;
58366;SDS011;57745;42.524;12.052;2024-01-25T12:09:32;5.85;;;2.05;;
58366;SDS011;57745;42.524;12.052;2024-01-25T12:11:57;6.07;;;1.90;;
58366;SDS011;57745;42.524;12.052;2024-01-25T12:14:26;6.38;;;2.17;;
58366;SDS011;57745;42.524;12.052;2024-01-25T12:16:55;5.75;;;2.00;;
58366;SDS011;57745;42.524;12.052;2024-01-25T12:19:20;6.43;;;2.75;;
58366;SDS011;57745;42.524;12.052;2024-01-25T12:21:46;9.85;;;4.72;;
58366;SDS011;57745;42.524;12.052;2024-01-25T12:24:12;10.68;;;4.75;;
58366;SDS011;57745;42.524;12.052;2024-01-25T12:26:38;9.65;;;4.47;;
58366;SDS011;57745;42.524;12.052;2024-01-25T12:29:03;8.43;;;3.83;;
58366;SDS011;57745;42.524;12.052;2024-01-25T12:31:31;11.13;;;3.63;;
58366;SDS011;57745;42.524;12.052;2024-01-25T12:33:56;10.30;;;3.67;;
58366;SDS011;57745;42.524;12.052;2024-01-25T12:36:23;5.57;;;2.60;;
58366;SDS011;57745;42.524;12.052;2024-01-25T12:38:48;6.18;;;2.58;;
58366;SDS011;57745;42.524;12.052;2024-01-25T12:41:14;5.20;;;2.40;;
58366;SDS011;57745;42.524;12.052;2024-01-25T12:43:40;4.55;;;2.38;;
58366;SDS011;57745;42.524;12.052;2024-01-25T12:46:05;20.83;;;7.13;;
58366;SDS011;57745;42.524;12.052;2024-01-25T12:48:31;8.57;;;3.75;;
58366;SDS011;57745;42.524;12.052;2024-01-25T12:50:56;12.00;;;3.90;;
58366;SDS011;57745;42.524;12.052;2024-01-25T12:53:22;7.65;;;3.92;;
58366;SDS011;57745;42.524;12.052;2024-01-25T12:55:47;9.77;;;4.13;;
58366;SDS011;57745;42.524;12.052;2024-01-25T12:58:13;9.07;;;2.95;;
58366;SDS011;57745;42.524;12.052;2024-01-25T13:00:38;8.10;;;3.00;;
58366;SDS011;57745;42.524;12.052;2024-01-25T13:03:04;5.78;;;2.47;;
58366;SDS011;57745;42.524;12.052;2024-01-25T13:05:29;8.85;;;2.75;;
58366;SDS011;57745;42.524;12.052;2024-01-25T13:07:59;6.25;;;2.58;;
58366;SDS011;57745;42.524;12.052;2024-01-25T13:10:30;7.88;;;2.47;;
58366;SDS011;57745;42.524;12.052;2024-01-25T13:12:56;7.15;;;3.20;;
58366;SDS011;57745;42.524;12.052;2024-01-25T13:15:22;5.25;;;2.20;;
58366;SDS011;57745;42.524;12.052;2024-01-25T13:17:48;5.75;;;2.50;;
58366;SDS011;57745;42.524;12.052;2024-01-25T13:20:13;7.90;;;2.20;;
58366;SDS011;57745;42.524;12.052;2024-01-25T13:22:39;7.07;;;2.60;;
58366;SDS011;57745;42.524;12.052;2024-01-25T13:25:04;6.63;;;2.90;;
58366;SDS011;57745;42.524;12.052;2024-01-25T13:27:30;8.48;;;3.50;;
58366;SDS011;57745;42.524;12.052;2024-01-25T13:29:56;10.63;;;3.50;;
58366;SDS011;57745;42.524;12.052;2024-01-25T13:32:22;11.43;;;4.20;;
58366;SDS011;57745;42.524;12.052;2024-01-25T13:34:48;6.95;;;3.13;;
58366;SDS011;57745;42.524;12.052;2024-01-25T13:37:13;10.60;;;3.92;;
58366;SDS011;57745;42.524;12.052;2024-01-25T13:39:39;8.98;;;3.80;;
58366;SDS011;57745;42.524;12.052;2024-01-25T13:42:04;8.75;;;3.70;;
58366;SDS011;57745;42.524;12.052;2024-01-25T13:44:29;40.55;;;12.02;;
58366;SDS011;57745;42.524;12.052;2024-01-25T13:46:55;16.83;;;6.25;;
58366;SDS011;57745;42.524;12.052;2024-01-25T13:49:21;30.10;;;11.18;;
58366;SDS011;57745;42.524;12.052;2024-01-25T13:51:47;38.05;;;13.50;;
58366;SDS011;57745;42.524;12.052;2024-01-25T13:54:12;46.80;;;16.02;;
58366;SDS011;57745;42.524;12.052;2024-01-25T13:56:38;55.85;;;18.20;;
58366;SDS011;57745;42.524;12.052;2024-01-25T13:59:04;72.70;;;25.92;;
58366;SDS011;57745;42.524;12.052;2024-01-25T14:01:30;65.65;;;23.27;;
58366;SDS011;57745;42.524;12.052;2024-01-25T14:03:56;64.95;;;22.98;;
58366;SDS011;57745;42.524;12.052;2024-01-25T14:06:21;67.30;;;24.67;;
58366;SDS011;57745;42.524;12.052;2024-01-25T14:08:46;51.80;;;19.10;;
58366;SDS011;57745;42.524;12.052;2024-01-25T14:11:12;48.13;;;16.85;;
58366;SDS011;57745;42.524;12.052;2024-01-25T14:13:38;37.28;;;14.35;;
58366;SDS011;57745;42.524;12.052;2024-01-25T14:16:03;35.13;;;12.32;;